sensor_id;sensor_type;location;lat;lon;timestamp;P1;durP1;ratioP1;P2;durP2;ratioP2
11269;SDS011;5692;48.956;9.200;2024-03-22T00:01:47;349.38;;;332.70;;
11269;SDS011;5692;48.956;9.200;2024-03-22T00:04:16;363.17;;;345.80;;
11269;SDS011;5692;48.956;9.200;2024-03-22T00:06:42;360.55;;;343.33;;
11269;SDS011;5692;48.956;9.200;2024-03-22T00:09:12;365.27;;;347.83;;
11269;SDS011;5692;48.956;9.200;2024-03-22T00:11:41;354.25;;;337.35;;
11269;SDS011;5692;48.956;9.200;2024-03-22T00:14:09;362.90;;;345.58;;
11269;SDS011;5692;48.956;9.200;2024-03-22T00:16:45;369.98;;;352.27;;
11269;SDS011;5692;48.956;9.200;2024-03-22T00:19:11;352.33;;;335.50;;
11269;SDS011;5692;48.956;9.200;2024-03-22T00:21:37;352.13;;;335.33;;
11269;SDS011;5692;48.956;9.200;2024-03-22T00:24:05;338.45;;;322.27;;
11269;SDS011;5692;48.956;9.200;2024-03-22T00:26:31;346.95;;;330.38;;
11269;SDS011;5692;48.956;9.200;2024-03-22T00:28:57;353.73;;;336.83;;
11269;SDS011;5692;48.956;9.200;2024-03-22T00:31:23;326.50;;;310.90;;
11269;SDS011;5692;48.956;9.200;2024-03-22T00:33:49;343.08;;;326.67;;
11269;SDS011;5692;48.956;9.200;2024-03-22T00:36:15;337.50;;;321.40;;
11269;SDS011;5692;48.956;9.200;2024-03-22T00:38:40;343.10;;;326.70;;
11269;SDS011;5692;48.956;9.200;2024-03-22T00:41:07;369.98;;;352.30;;
11269;SDS011;5692;48.956;9.200;2024-03-22T00:43:35;345.30;;;328.80;;
11269;SDS011;5692;48.956;9.200;2024-03-22T00:46:01;375.85;;;357.90;;
11269;SDS011;5692;48.956;9.200;2024-03-22T00:48:35;351.15;;;334.35;;
11269;SDS011;5692;48.956;9.200;2024-03-22T00:51:01;355.73;;;338.73;;
11269;SDS011;5692;48.956;9.200;2024-03-22T00:53:30;356.50;;;339.48;;
11269;SDS011;5692;48.956;9.200;2024-03-22T00:55:56;332.50;;;316.60;;
11269;SDS011;5692;48.956;9.200;2024-03-22T00:58:25;349.00;;;332.30;;
11269;SDS011;5692;48.956;9.200;2024-03-22T01:00:54;351.20;;;334.42;;
11269;SDS011;5692;48.956;9.200;2024-03-22T01:03:20;328.45;;;312.75;;
11269;SDS011;5692;48.956;9.200;2024-03-22T01:05:46;335.80;;;319.77;;
11269;SDS011;5692;48.956;9.200;2024-03-22T01:08:12;334.67;;;318.67;;
11269;SDS011;5692;48.956;9.200;2024-03-22T01:10:39;329.52;;;313.80;;
11269;SDS011;5692;48.956;9.200;2024-03-22T01:13:09;339.38;;;323.17;;
11269;SDS011;5692;48.956;9.200;2024-03-22T01:15:35;328.77;;;313.07;;
11269;SDS011;5692;48.956;9.200;2024-03-22T01:18:01;316.23;;;301.13;;
11269;SDS011;5692;48.956;9.200;2024-03-22T01:20:26;340.37;;;324.07;;
11269;SDS011;5692;48.956;9.200;2024-03-22T01:22:52;339.33;;;323.13;;
11269;SDS011;5692;48.956;9.200;2024-03-22T01:25:18;349.27;;;332.57;;
11269;SDS011;5692;48.956;9.200;2024-03-22T01:27:43;331.40;;;315.60;;
11269;SDS011;5692;48.956;9.200;2024-03-22T01:30:11;330.00;;;314.23;;
11269;SDS011;5692;48.956;9.200;2024-03-22T01:32:37;342.73;;;326.33;;
11269;SDS011;5692;48.956;9.200;2024-03-22T01:35:03;328.93;;;313.23;;
11269;SDS011;5692;48.956;9.200;2024-03-22T01:37:31;329.02;;;313.30;;
11269;SDS011;5692;48.956;9.200;2024-03-22T01:39:57;333.23;;;317.30;;
11269;SDS011;5692;48.956;9.200;2024-03-22T01:42:22;341.07;;;324.77;;
11269;SDS011;5692;48.956;9.200;2024-03-22T01:44:48;322.60;;;307.20;;
11269;SDS011;5692;48.956;9.200;2024-03-22T01:47:14;335.83;;;319.80;;
11269;SDS011;5692;48.956;9.200;2024-03-22T01:49:41;324.95;;;309.42;;
11269;SDS011;5692;48.956;9.200;2024-03-22T01:52:07;324.43;;;308.93;;
11269;SDS011;5692;48.956;9.200;2024-03-22T01:54:32;314.20;;;299.20;;
11269;SDS011;5692;48.956;9.200;2024-03-22T01:56:58;330.70;;;314.90;;
11269;SDS011;5692;48.956;9.200;2024-03-22T01:59:26;321.25;;;305.90;;
11269;SDS011;5692;48.956;9.200;2024-03-22T02:02:00;328.65;;;312.95;;
11269;SDS011;5692;48.956;9.200;2024-03-22T02:04:27;341.00;;;324.73;;
11269;SDS011;5692;48.956;9.200;2024-03-22T02:06:53;340.97;;;324.67;;
11269;SDS011;5692;48.956;9.200;2024-03-22T02:09:20;342.05;;;325.70;;
11269;SDS011;5692;48.956;9.200;2024-03-22T02:11:50;319.17;;;303.92;;
11269;SDS011;5692;48.956;9.200;2024-03-22T02:14:19;337.90;;;321.77;;
11269;SDS011;5692;48.956;9.200;2024-03-22T02:16:47;310.20;;;295.40;;
11269;SDS011;5692;48.956;9.200;2024-03-22T02:19:15;316.60;;;301.50;;
11269;SDS011;5692;48.956;9.200;2024-03-22T02:21:43;321.90;;;306.52;;
11269;SDS011;5692;48.956;9.200;2024-03-22T02:24:09;326.33;;;310.73;;
11269;SDS011;5692;48.956;9.200;2024-03-22T02:26:39;329.88;;;314.13;;
11269;SDS011;5692;48.956;9.200;2024-03-22T02:29:10;332.60;;;316.70;;
11269;SDS011;5692;48.956;9.200;2024-03-22T02:31:35;349.33;;;332.63;;
11269;SDS011;5692;48.956;9.200;2024-03-22T02:34:03;327.33;;;311.73;;
11269;SDS011;5692;48.956;9.200;2024-03-22T02:36:29;319.67;;;304.40;;
11269;SDS011;5692;48.956;9.200;2024-03-22T02:38:57;322.80;;;307.40;;
11269;SDS011;5692;48.956;9.200;2024-03-22T02:41:27;310.67;;;295.83;;
11269;SDS011;5692;48.956;9.200;2024-03-22T02:43:58;331.30;;;315.48;;
11269;SDS011;5692;48.956;9.200;2024-03-22T02:46:28;315.48;;;300.38;;
11269;SDS011;5692;48.956;9.200;2024-03-22T02:48:54;332.63;;;316.73;;
11269;SDS011;5692;48.956;9.200;2024-03-22T02:51:23;324.23;;;308.73;;
11269;SDS011;5692;48.956;9.200;2024-03-22T02:53:51;322.38;;;306.98;;
11269;SDS011;5692;48.956;9.200;2024-03-22T02:56:16;311.73;;;296.83;;
11269;SDS011;5692;48.956;9.200;2024-03-22T02:58:42;299.90;;;285.57;;
11269;SDS011;5692;48.956;9.200;2024-03-22T03:01:08;332.37;;;316.47;;
11269;SDS011;5692;48.956;9.200;2024-03-22T03:03:33;321.77;;;306.40;;
11269;SDS011;5692;48.956;9.200;2024-03-22T03:05:59;329.00;;;313.30;;
11269;SDS011;5692;48.956;9.200;2024-03-22T03:08:25;325.30;;;309.77;;
11269;SDS011;5692;48.956;9.200;2024-03-22T03:10:50;327.77;;;312.10;;
11269;SDS011;5692;48.956;9.200;2024-03-22T03:13:19;315.77;;;300.67;;
11269;SDS011;5692;48.956;9.200;2024-03-22T03:15:44;314.15;;;299.15;;
11269;SDS011;5692;48.956;9.200;2024-03-22T03:18:13;310.10;;;295.30;;
11269;SDS011;5692;48.956;9.200;2024-03-22T03:20:41;317.35;;;302.20;;
11269;SDS011;5692;48.956;9.200;2024-03-22T03:23:07;320.80;;;305.50;;
11269;SDS011;5692;48.956;9.200;2024-03-22T03:25:33;329.87;;;314.10;;
11269;SDS011;5692;48.956;9.200;2024-03-22T03:27:58;328.90;;;313.17;;
11269;SDS011;5692;48.956;9.200;2024-03-22T03:30:26;315.42;;;300.35;;
11269;SDS011;5692;48.956;9.200;2024-03-22T03:32:52;313.03;;;298.07;;
11269;SDS011;5692;48.956;9.200;2024-03-22T03:35:21;304.57;;;290.00;;
11269;SDS011;5692;48.956;9.200;2024-03-22T03:37:47;300.77;;;286.40;;
11269;SDS011;5692;48.956;9.200;2024-03-22T03:40:12;314.98;;;299.92;;
11269;SDS011;5692;48.956;9.200;2024-03-22T03:42:41;320.20;;;304.90;;
11269;SDS011;5692;48.956;9.200;2024-03-22T03:45:09;324.33;;;308.83;;
11269;SDS011;5692;48.956;9.200;2024-03-22T03:47:41;328.92;;;313.23;;
11269;SDS011;5692;48.956;9.200;2024-03-22T03:50:07;331.53;;;315.73;;
11269;SDS011;5692;48.956;9.200;2024-03-22T03:52:33;313.03;;;298.07;;
11269;SDS011;5692;48.956;9.200;2024-03-22T03:54:59;324.10;;;308.63;;
11269;SDS011;5692;48.956;9.200;2024-03-22T03:57:24;336.20;;;320.13;;
11269;SDS011;5692;48.956;9.200;2024-03-22T03:59:55;348.92;;;332.25;;
11269;SDS011;5692;48.956;9.200;2024-03-22T04:02:21;348.40;;;331.77;;
11269;SDS011;5692;48.956;9.200;2024-03-22T04:04:46;324.33;;;308.83;;
11269;SDS011;5692;48.956;9.200;2024-03-22T04:07:14;330.50;;;314.70;;
11269;SDS011;5692;48.956;9.200;2024-03-22T04:09:42;336.73;;;320.63;;
11269;SDS011;5692;48.956;9.200;2024-03-22T04:12:08;348.73;;;332.05;;
11269;SDS011;5692;48.956;9.200;2024-03-22T04:14:34;341.17;;;324.87;;
11269;SDS011;5692;48.956;9.200;2024-03-22T04:17:01;342.20;;;325.88;;
11269;SDS011;5692;48.956;9.200;2024-03-22T04:19:27;336.00;;;319.97;;
11269;SDS011;5692;48.956;9.200;2024-03-22T04:21:54;339.83;;;323.63;;
11269;SDS011;5692;48.956;9.200;2024-03-22T04:24:20;331.73;;;315.88;;
11269;SDS011;5692;48.956;9.200;2024-03-22T04:26:45;318.27;;;303.07;;
11269;SDS011;5692;48.956;9.200;2024-03-22T04:29:11;323.20;;;307.77;;
11269;SDS011;5692;48.956;9.200;2024-03-22T04:31:49;338.70;;;322.50;;
11269;SDS011;5692;48.956;9.200;2024-03-22T04:34:18;326.85;;;311.25;;
11269;SDS011;5692;48.956;9.200;2024-03-22T04:36:46;331.77;;;315.92;;
11269;SDS011;5692;48.956;9.200;2024-03-22T04:39:12;328.10;;;312.42;;
11269;SDS011;5692;48.956;9.200;2024-03-22T04:41:41;342.45;;;326.08;;
11269;SDS011;5692;48.956;9.200;2024-03-22T04:44:08;325.88;;;310.27;;
11269;SDS011;5692;48.956;9.200;2024-03-22T04:46:38;323.52;;;308.05;;
11269;SDS011;5692;48.956;9.200;2024-03-22T04:49:04;328.33;;;312.63;;
11269;SDS011;5692;48.956;9.200;2024-03-22T04:51:32;334.73;;;318.73;;
11269;SDS011;5692;48.956;9.200;2024-03-22T04:54:00;326.70;;;311.10;;
11269;SDS011;5692;48.956;9.200;2024-03-22T04:56:26;313.70;;;298.70;;
11269;SDS011;5692;48.956;9.200;2024-03-22T04:58:52;322.40;;;307.00;;
11269;SDS011;5692;48.956;9.200;2024-03-22T05:01:17;337.20;;;321.10;;
11269;SDS011;5692;48.956;9.200;2024-03-22T05:03:43;319.55;;;304.27;;
11269;SDS011;5692;48.956;9.200;2024-03-22T05:06:09;316.73;;;301.63;;
11269;SDS011;5692;48.956;9.200;2024-03-22T05:08:35;311.90;;;297.00;;
11269;SDS011;5692;48.956;9.200;2024-03-22T05:11:00;323.70;;;308.23;;
11269;SDS011;5692;48.956;9.200;2024-03-22T05:13:27;328.00;;;312.33;;
11269;SDS011;5692;48.956;9.200;2024-03-22T05:15:53;335.35;;;319.33;;
11269;SDS011;5692;48.956;9.200;2024-03-22T05:18:22;343.38;;;326.98;;
11269;SDS011;5692;48.956;9.200;2024-03-22T05:20:48;340.38;;;324.13;;
11269;SDS011;5692;48.956;9.200;2024-03-22T05:23:24;349.13;;;332.48;;
11269;SDS011;5692;48.956;9.200;2024-03-22T05:26:13;356.35;;;339.30;;
11269;SDS011;5692;48.956;9.200;2024-03-22T05:28:39;329.15;;;313.45;;
11269;SDS011;5692;48.956;9.200;2024-03-22T05:31:15;323.48;;;308.02;;
11269;SDS011;5692;48.956;9.200;2024-03-22T05:33:43;333.55;;;317.60;;
11269;SDS011;5692;48.956;9.200;2024-03-22T05:36:09;316.30;;;301.20;;
11269;SDS011;5692;48.956;9.200;2024-03-22T05:38:35;318.20;;;303.00;;
11269;SDS011;5692;48.956;9.200;2024-03-22T05:41:04;338.63;;;322.45;;
11269;SDS011;5692;48.956;9.200;2024-03-22T05:43:30;332.90;;;317.00;;
11269;SDS011;5692;48.956;9.200;2024-03-22T05:45:56;352.88;;;336.02;;
11269;SDS011;5692;48.956;9.200;2024-03-22T05:48:41;356.98;;;339.92;;
11269;SDS011;5692;48.956;9.200;2024-03-22T05:51:09;339.63;;;323.42;;
11269;SDS011;5692;48.956;9.200;2024-03-22T05:53:37;326.40;;;310.80;;
11269;SDS011;5692;48.956;9.200;2024-03-22T05:56:10;341.55;;;325.25;;
11269;SDS011;5692;48.956;9.200;2024-03-22T05:59:18;337.45;;;321.33;;
11269;SDS011;5692;48.956;9.200;2024-03-22T06:01:46;341.85;;;325.55;;
11269;SDS011;5692;48.956;9.200;2024-03-22T06:04:17;336.50;;;320.40;;
11269;SDS011;5692;48.956;9.200;2024-03-22T06:07:03;328.98;;;313.27;;
11269;SDS011;5692;48.956;9.200;2024-03-22T06:09:53;341.42;;;325.13;;
11269;SDS011;5692;48.956;9.200;2024-03-22T06:12:27;322.13;;;306.73;;
11269;SDS011;5692;48.956;9.200;2024-03-22T06:14:52;347.33;;;330.73;;
11269;SDS011;5692;48.956;9.200;2024-03-22T06:17:18;329.33;;;313.60;;
11269;SDS011;5692;48.956;9.200;2024-03-22T06:19:44;320.13;;;304.83;;
11269;SDS011;5692;48.956;9.200;2024-03-22T06:22:10;309.38;;;294.60;;
11269;SDS011;5692;48.956;9.200;2024-03-22T06:24:38;309.25;;;294.48;;
11269;SDS011;5692;48.956;9.200;2024-03-22T06:27:07;322.10;;;306.70;;
11269;SDS011;5692;48.956;9.200;2024-03-22T06:29:33;327.27;;;311.67;;
11269;SDS011;5692;48.956;9.200;2024-03-22T06:31:59;332.92;;;317.02;;
11269;SDS011;5692;48.956;9.200;2024-03-22T06:34:32;346.15;;;329.63;;
11269;SDS011;5692;48.956;9.200;2024-03-22T06:37:03;357.02;;;339.98;;
11269;SDS011;5692;48.956;9.200;2024-03-22T06:39:39;355.42;;;338.42;;
11269;SDS011;5692;48.956;9.200;2024-03-22T06:42:23;355.13;;;338.13;;
11269;SDS011;5692;48.956;9.200;2024-03-22T06:47:40;354.38;;;337.45;;
11269;SDS011;5692;48.956;9.200;2024-03-22T06:50:06;362.27;;;344.98;;
11269;SDS011;5692;48.956;9.200;2024-03-22T06:52:43;334.67;;;318.67;;
11269;SDS011;5692;48.956;9.200;2024-03-22T06:55:09;346.63;;;330.05;;
11269;SDS011;5692;48.956;9.200;2024-03-22T06:57:54;361.13;;;343.90;;
11269;SDS011;5692;48.956;9.200;2024-03-22T07:00:20;345.92;;;329.42;;
11269;SDS011;5692;48.956;9.200;2024-03-22T07:02:49;366.48;;;348.98;;
11269;SDS011;5692;48.956;9.200;2024-03-22T07:05:23;381.33;;;363.13;;
11269;SDS011;5692;48.956;9.200;2024-03-22T07:08:09;360.23;;;343.02;;
11269;SDS011;5692;48.956;9.200;2024-03-22T07:10:38;372.45;;;354.65;;
11269;SDS011;5692;48.956;9.200;2024-03-22T07:13:04;366.98;;;349.48;;
11269;SDS011;5692;48.956;9.200;2024-03-22T07:15:30;365.48;;;348.00;;
11269;SDS011;5692;48.956;9.200;2024-03-22T07:18:00;379.50;;;361.38;;
11269;SDS011;5692;48.956;9.200;2024-03-22T07:20:33;376.38;;;358.38;;
11269;SDS011;5692;48.956;9.200;2024-03-22T07:22:59;365.35;;;347.90;;
11269;SDS011;5692;48.956;9.200;2024-03-22T07:25:25;360.95;;;343.75;;
11269;SDS011;5692;48.956;9.200;2024-03-22T07:27:54;353.23;;;336.33;;
11269;SDS011;5692;48.956;9.200;2024-03-22T07:30:27;373.85;;;355.98;;
11269;SDS011;5692;48.956;9.200;2024-03-22T07:32:53;361.70;;;344.42;;
11269;SDS011;5692;48.956;9.200;2024-03-22T07:35:24;342.05;;;325.73;;
11269;SDS011;5692;48.956;9.200;2024-03-22T07:37:50;358.17;;;341.08;;
11269;SDS011;5692;48.956;9.200;2024-03-22T07:40:15;363.80;;;346.43;;
11269;SDS011;5692;48.956;9.200;2024-03-22T07:42:41;371.43;;;353.73;;
11269;SDS011;5692;48.956;9.200;2024-03-22T07:45:07;360.47;;;343.23;;
11269;SDS011;5692;48.956;9.200;2024-03-22T07:47:41;381.23;;;363.02;;
11269;SDS011;5692;48.956;9.200;2024-03-22T07:50:09;364.65;;;347.25;;
11269;SDS011;5692;48.956;9.200;2024-03-22T07:52:47;369.33;;;351.67;;
11269;SDS011;5692;48.956;9.200;2024-03-22T07:55:16;381.83;;;363.60;;
11269;SDS011;5692;48.956;9.200;2024-03-22T07:57:49;354.52;;;337.60;;
11269;SDS011;5692;48.956;9.200;2024-03-22T08:00:22;364.00;;;346.63;;
11269;SDS011;5692;48.956;9.200;2024-03-22T08:02:51;375.38;;;357.45;;
11269;SDS011;5692;48.956;9.200;2024-03-22T08:05:21;366.88;;;349.38;;
11269;SDS011;5692;48.956;9.200;2024-03-22T08:07:47;359.38;;;342.20;;
11269;SDS011;5692;48.956;9.200;2024-03-22T08:10:18;393.73;;;374.92;;
11269;SDS011;5692;48.956;9.200;2024-03-22T08:12:46;398.55;;;379.55;;
11269;SDS011;5692;48.956;9.200;2024-03-22T08:15:15;408.45;;;388.95;;
11269;SDS011;5692;48.956;9.200;2024-03-22T08:17:43;403.55;;;384.25;;
11269;SDS011;5692;48.956;9.200;2024-03-22T08:20:17;398.15;;;379.15;;
11269;SDS011;5692;48.956;9.200;2024-03-22T08:23:04;411.48;;;391.85;;
11269;SDS011;5692;48.956;9.200;2024-03-22T08:25:30;418.58;;;398.60;;
11269;SDS011;5692;48.956;9.200;2024-03-22T08:27:58;425.08;;;404.77;;
11269;SDS011;5692;48.956;9.200;2024-03-22T08:30:29;441.10;;;420.05;;
11269;SDS011;5692;48.956;9.200;2024-03-22T08:33:04;421.63;;;401.50;;
11269;SDS011;5692;48.956;9.200;2024-03-22T08:35:54;435.50;;;414.70;;
11269;SDS011;5692;48.956;9.200;2024-03-22T08:38:20;425.38;;;405.08;;
11269;SDS011;5692;48.956;9.200;2024-03-22T08:40:51;438.00;;;417.10;;
11269;SDS011;5692;48.956;9.200;2024-03-22T08:43:16;431.67;;;411.07;;
11269;SDS011;5692;48.956;9.200;2024-03-22T08:45:47;445.92;;;424.65;;
11269;SDS011;5692;48.956;9.200;2024-03-22T08:48:15;454.75;;;433.05;;
11269;SDS011;5692;48.956;9.200;2024-03-22T08:50:52;434.42;;;413.67;;
11269;SDS011;5692;48.956;9.200;2024-03-22T08:53:21;433.55;;;412.85;;
11269;SDS011;5692;48.956;9.200;2024-03-22T08:55:47;447.55;;;426.17;;
11269;SDS011;5692;48.956;9.200;2024-03-22T08:58:14;428.67;;;408.17;;
11269;SDS011;5692;48.956;9.200;2024-03-22T09:00:47;440.55;;;419.55;;
11269;SDS011;5692;48.956;9.200;2024-03-22T09:03:13;451.13;;;429.60;;
11269;SDS011;5692;48.956;9.200;2024-03-22T09:06:00;448.55;;;427.15;;
11269;SDS011;5692;48.956;9.200;2024-03-22T09:08:29;433.42;;;412.73;;
11269;SDS011;5692;48.956;9.200;2024-03-22T09:11:02;452.30;;;430.70;;
11269;SDS011;5692;48.956;9.200;2024-03-22T09:16:46;445.23;;;423.98;;
11269;SDS011;5692;48.956;9.200;2024-03-22T09:19:12;444.98;;;423.73;;
11269;SDS011;5692;48.956;9.200;2024-03-22T09:21:47;453.58;;;431.92;;
11269;SDS011;5692;48.956;9.200;2024-03-22T09:24:13;452.10;;;430.52;;
11269;SDS011;5692;48.956;9.200;2024-03-22T09:26:39;463.87;;;441.73;;
11269;SDS011;5692;48.956;9.200;2024-03-22T09:29:05;458.63;;;436.73;;
11269;SDS011;5692;48.956;9.200;2024-03-22T09:31:47;458.08;;;436.20;;
11269;SDS011;5692;48.956;9.200;2024-03-22T09:34:18;456.35;;;434.55;;
11269;SDS011;5692;48.956;9.200;2024-03-22T09:40:15;482.60;;;459.58;;
11269;SDS011;5692;48.956;9.200;2024-03-22T09:46:00;461.23;;;439.23;;
11269;SDS011;5692;48.956;9.200;2024-03-22T09:48:56;480.17;;;457.27;;
11269;SDS011;5692;48.956;9.200;2024-03-22T09:51:24;468.60;;;446.25;;
11269;SDS011;5692;48.956;9.200;2024-03-22T09:54:11;469.13;;;446.73;;
11269;SDS011;5692;48.956;9.200;2024-03-22T10:00:16;463.17;;;441.05;;
11269;SDS011;5692;48.956;9.200;2024-03-22T10:03:05;483.40;;;460.35;;
11269;SDS011;5692;48.956;9.200;2024-03-22T10:05:41;473.48;;;450.88;;
11269;SDS011;5692;48.956;9.200;2024-03-22T10:08:12;473.65;;;451.05;;
11269;SDS011;5692;48.956;9.200;2024-03-22T10:10:38;480.00;;;457.10;;
11269;SDS011;5692;48.956;9.200;2024-03-22T10:13:26;477.58;;;454.77;;
11269;SDS011;5692;48.956;9.200;2024-03-22T10:15:56;489.25;;;465.90;;
11269;SDS011;5692;48.956;9.200;2024-03-22T10:21:31;480.58;;;457.65;;
11269;SDS011;5692;48.956;9.200;2024-03-22T10:23:57;486.00;;;462.80;;
11269;SDS011;5692;48.956;9.200;2024-03-22T10:29:35;472.05;;;449.50;;
11269;SDS011;5692;48.956;9.200;2024-03-22T10:32:09;503.15;;;479.15;;
11269;SDS011;5692;48.956;9.200;2024-03-22T10:34:38;511.08;;;486.67;;
11269;SDS011;5692;48.956;9.200;2024-03-22T10:37:10;484.83;;;461.70;;
11269;SDS011;5692;48.956;9.200;2024-03-22T10:39:43;490.58;;;467.17;;
11269;SDS011;5692;48.956;9.200;2024-03-22T10:42:20;469.45;;;447.05;;
11269;SDS011;5692;48.956;9.200;2024-03-22T10:44:50;495.20;;;471.58;;
11269;SDS011;5692;48.956;9.200;2024-03-22T10:47:21;487.50;;;464.23;;
11269;SDS011;5692;48.956;9.200;2024-03-22T10:49:49;501.98;;;478.02;;
11269;SDS011;5692;48.956;9.200;2024-03-22T10:52:21;487.63;;;464.35;;
11269;SDS011;5692;48.956;9.200;2024-03-22T10:54:47;500.27;;;476.38;;
11269;SDS011;5692;48.956;9.200;2024-03-22T10:57:29;482.73;;;459.67;;
11269;SDS011;5692;48.956;9.200;2024-03-22T11:00:09;496.83;;;473.13;;
11269;SDS011;5692;48.956;9.200;2024-03-22T11:02:42;485.45;;;462.27;;
11269;SDS011;5692;48.956;9.200;2024-03-22T11:05:17;507.90;;;483.65;;
11269;SDS011;5692;48.956;9.200;2024-03-22T11:07:44;485.67;;;462.50;;
11269;SDS011;5692;48.956;9.200;2024-03-22T11:10:13;499.25;;;475.42;;
11269;SDS011;5692;48.956;9.200;2024-03-22T11:12:45;477.77;;;454.98;;
11269;SDS011;5692;48.956;9.200;2024-03-22T11:15:16;482.35;;;459.33;;
11269;SDS011;5692;48.956;9.200;2024-03-22T11:17:45;497.17;;;473.45;;
11269;SDS011;5692;48.956;9.200;2024-03-22T11:20:17;487.88;;;464.60;;
11269;SDS011;5692;48.956;9.200;2024-03-22T11:22:48;504.42;;;480.35;;
11269;SDS011;5692;48.956;9.200;2024-03-22T11:25:17;501.75;;;477.83;;
11269;SDS011;5692;48.956;9.200;2024-03-22T11:28:06;503.45;;;479.45;;
11269;SDS011;5692;48.956;9.200;2024-03-22T11:30:42;514.13;;;489.60;;
11269;SDS011;5692;48.956;9.200;2024-03-22T11:33:08;491.38;;;467.92;;
11269;SDS011;5692;48.956;9.200;2024-03-22T11:35:41;493.25;;;469.73;;
11269;SDS011;5692;48.956;9.200;2024-03-22T11:38:22;497.95;;;474.20;;
11269;SDS011;5692;48.956;9.200;2024-03-22T11:40:55;482.30;;;459.30;;
11269;SDS011;5692;48.956;9.200;2024-03-22T11:43:30;502.85;;;478.85;;
11269;SDS011;5692;48.956;9.200;2024-03-22T11:45:56;505.67;;;481.58;;
11269;SDS011;5692;48.956;9.200;2024-03-22T11:48:23;503.45;;;479.42;;
11269;SDS011;5692;48.956;9.200;2024-03-22T11:50:49;479.97;;;457.07;;
11269;SDS011;5692;48.956;9.200;2024-03-22T11:53:18;498.58;;;474.77;;
11269;SDS011;5692;48.956;9.200;2024-03-22T11:55:44;485.77;;;462.60;;
11269;SDS011;5692;48.956;9.200;2024-03-22T11:58:10;485.40;;;462.25;;
11269;SDS011;5692;48.956;9.200;2024-03-22T12:00:36;500.57;;;476.67;;
11269;SDS011;5692;48.956;9.200;2024-03-22T12:03:09;486.75;;;463.52;;
11269;SDS011;5692;48.956;9.200;2024-03-22T12:08:20;495.63;;;471.98;;
11269;SDS011;5692;48.956;9.200;2024-03-22T12:10:51;481.00;;;458.05;;
11269;SDS011;5692;48.956;9.200;2024-03-22T12:13:20;485.67;;;462.48;;
11269;SDS011;5692;48.956;9.200;2024-03-22T12:15:52;491.77;;;468.33;;
11269;SDS011;5692;48.956;9.200;2024-03-22T12:18:18;489.85;;;466.48;;
11269;SDS011;5692;48.956;9.200;2024-03-22T12:20:54;497.45;;;473.73;;
11269;SDS011;5692;48.956;9.200;2024-03-22T12:23:20;491.27;;;467.85;;
11269;SDS011;5692;48.956;9.200;2024-03-22T12:25:46;514.95;;;490.38;;
11269;SDS011;5692;48.956;9.200;2024-03-22T12:28:15;478.73;;;455.88;;
11269;SDS011;5692;48.956;9.200;2024-03-22T12:30:41;479.42;;;456.52;;
11269;SDS011;5692;48.956;9.200;2024-03-22T12:33:08;483.48;;;460.42;;
11269;SDS011;5692;48.956;9.200;2024-03-22T12:35:40;491.80;;;468.30;;
11269;SDS011;5692;48.956;9.200;2024-03-22T12:38:07;475.10;;;452.42;;
11269;SDS011;5692;48.956;9.200;2024-03-22T12:40:38;486.25;;;463.05;;
11269;SDS011;5692;48.956;9.200;2024-03-22T12:43:05;490.95;;;467.52;;
11269;SDS011;5692;48.956;9.200;2024-03-22T13:11:29;483.52;;;460.42;;
11269;SDS011;5692;48.956;9.200;2024-03-22T13:13:59;496.27;;;472.60;;
11269;SDS011;5692;48.956;9.200;2024-03-22T13:16:26;499.23;;;475.40;;
11269;SDS011;5692;48.956;9.200;2024-03-22T13:18:56;479.15;;;456.27;;
11269;SDS011;5692;48.956;9.200;2024-03-22T13:21:24;489.88;;;466.50;;
11269;SDS011;5692;48.956;9.200;2024-03-22T13:23:50;482.43;;;459.43;;
11269;SDS011;5692;48.956;9.200;2024-03-22T13:26:30;492.15;;;468.65;;
11269;SDS011;5692;48.956;9.200;2024-03-22T13:29:11;501.95;;;478.00;;
11269;SDS011;5692;48.956;9.200;2024-03-22T13:31:55;495.92;;;472.27;;
11269;SDS011;5692;48.956;9.200;2024-03-22T13:34:23;493.77;;;470.20;;
11269;SDS011;5692;48.956;9.200;2024-03-22T13:36:53;473.98;;;451.35;;
11269;SDS011;5692;48.956;9.200;2024-03-22T13:39:19;472.97;;;450.40;;
11269;SDS011;5692;48.956;9.200;2024-03-22T13:41:48;484.73;;;461.60;;
11269;SDS011;5692;48.956;9.200;2024-03-22T13:44:17;473.40;;;450.80;;
11269;SDS011;5692;48.956;9.200;2024-03-22T13:46:49;477.58;;;454.77;;
11269;SDS011;5692;48.956;9.200;2024-03-22T13:49:15;463.92;;;441.80;;
11269;SDS011;5692;48.956;9.200;2024-03-22T13:51:46;463.83;;;441.70;;
11269;SDS011;5692;48.956;9.200;2024-03-22T13:54:15;470.02;;;447.60;;
11269;SDS011;5692;48.956;9.200;2024-03-22T13:56:42;469.60;;;447.20;;
11269;SDS011;5692;48.956;9.200;2024-03-22T13:59:08;473.60;;;451.00;;
11269;SDS011;5692;48.956;9.200;2024-03-22T14:01:37;478.40;;;455.55;;
11269;SDS011;5692;48.956;9.200;2024-03-22T14:04:06;472.67;;;450.13;;
11269;SDS011;5692;48.956;9.200;2024-03-22T14:06:33;473.48;;;450.88;;
11269;SDS011;5692;48.956;9.200;2024-03-22T14:09:11;471.25;;;448.75;;
11269;SDS011;5692;48.956;9.200;2024-03-22T14:11:38;479.13;;;456.25;;
11269;SDS011;5692;48.956;9.200;2024-03-22T14:14:13;472.15;;;449.60;;
11269;SDS011;5692;48.956;9.200;2024-03-22T14:16:41;481.20;;;458.23;;
11269;SDS011;5692;48.956;9.200;2024-03-22T14:19:07;473.58;;;450.98;;
11269;SDS011;5692;48.956;9.200;2024-03-22T14:21:45;480.75;;;457.83;;
11269;SDS011;5692;48.956;9.200;2024-03-22T14:24:19;477.30;;;454.50;;
11269;SDS011;5692;48.956;9.200;2024-03-22T14:26:47;486.48;;;463.25;;
11269;SDS011;5692;48.956;9.200;2024-03-22T14:29:15;480.13;;;457.20;;
11269;SDS011;5692;48.956;9.200;2024-03-22T14:31:48;501.50;;;477.60;;
11269;SDS011;5692;48.956;9.200;2024-03-22T14:34:23;496.92;;;473.23;;
11269;SDS011;5692;48.956;9.200;2024-03-22T14:36:52;481.70;;;458.70;;
11269;SDS011;5692;48.956;9.200;2024-03-22T14:39:20;470.42;;;447.98;;
11269;SDS011;5692;48.956;9.200;2024-03-22T14:41:47;478.00;;;455.20;;
11269;SDS011;5692;48.956;9.200;2024-03-22T14:44:15;467.17;;;444.88;;
11269;SDS011;5692;48.956;9.200;2024-03-22T14:46:51;474.08;;;451.45;;
11269;SDS011;5692;48.956;9.200;2024-03-22T14:49:27;480.90;;;457.95;;
11269;SDS011;5692;48.956;9.200;2024-03-22T14:51:55;471.08;;;448.58;;
11269;SDS011;5692;48.956;9.200;2024-03-22T14:54:21;462.87;;;440.77;;
11269;SDS011;5692;48.956;9.200;2024-03-22T14:56:46;471.90;;;449.40;;
11269;SDS011;5692;48.956;9.200;2024-03-22T14:59:15;460.90;;;438.90;;
11269;SDS011;5692;48.956;9.200;2024-03-22T15:01:51;457.30;;;435.50;;
11269;SDS011;5692;48.956;9.200;2024-03-22T15:04:20;457.35;;;435.52;;
11269;SDS011;5692;48.956;9.200;2024-03-22T15:06:51;468.05;;;445.70;;
11269;SDS011;5692;48.956;9.200;2024-03-22T15:09:20;452.40;;;430.80;;
11269;SDS011;5692;48.956;9.200;2024-03-22T15:11:50;459.27;;;437.35;;
11269;SDS011;5692;48.956;9.200;2024-03-22T15:14:26;464.30;;;442.15;;